KNRS/NRS METAR and TAF weather

Enter ICAO airport designator
Station Type Date Time Source
KNRS METAR 2022/08/16 18:53 UTC NOAA

KNRS 161853Z 27010KT 9SM FEW008 FEW050 24/19 A2983 RMK AO2 SLP102 T02440194


Station Type Date Time Source
KNRS Decoded METAR 2022/08/16 18:53 UTC NOAA

IMPERIAL BEACH, NOLF, CA, United States (KNRS) 32-34N 117-07W 5M
Aug 16, 2022 - 02:53 PM EDT / 2022.08.16 1853 UTC
Wind: from the W (270 degrees) at 12 MPH (10 KT):0
Visibility: 9 mile(s):0
Sky conditions: mostly clear
Temperature: 75.9 F (24.4 C)
Dew Point: 66.9 F (19.4 C)
Relative Humidity: 73%
Pressure (altimeter): 29.83 in. Hg (1010 hPa)
ob: KNRS 161853Z 27010KT 9SM FEW008 FEW050 24/19 A2983 RMK AO2 SLP102 T02440194
cycle: 19

Station Type Date Time Source
KNRS TAF UTC NOAA

Error!

Example: see airport list